Flora, IL

10:28 PM CDT am 31. Juli 2015 (GMT -0500)
Flora Municipal | | Change Station
CLOSE
Current Station
Flughafen
Location: Flora,
Höhe: 472 ft
Wetterstationen in der Umgebung

Höhe 472 ft 38.67 °N, 88.45 °W | Updated 13 minutes ago

Heiter
Heiter
73 °F
gefühlte 73 °F
N
5
Wind Wechselnd Wind aus West

Heute
Max. -- | schwach -- °F
--% Regenrisiko
Gestern
Max. -- | schwach -- °F
Precip. -- inch
5:54 AM 8:05 PM
Vollmond, 99% visible
Druck 30.03 inch
Sichtweite 10.0 Meilen
Wolken Heiter
Taupunkt 68 °F
Feuchtigkeit 86%
Regen 0.00 inch
Schneehöhe Nicht verfügbar..
UV 0 von 12
Pollen 5.40 von 12
Luftqualität Nicht verfügbar..
Flu Activity Nicht verfügbar..
METAR KFOA 010315Z AUTO 26004KT 10SM CLR 23/20 A3003 RMK AO2 T02270203

More Conditions Fewer Conditions

Druck 30.03 inch
Sichtweite 10.0 Meilen
Wolken Heiter
Taupunkt 68 °F
Feuchtigkeit 86%
Regen 0.00 inch
Schneehöhe Nicht verfügbar..
UV 0 von 12
Pollen 5.40 von 12
Luftqualität Nicht verfügbar..
Flu Activity Nicht verfügbar..
METAR KFOA 010315Z AUTO 26004KT 10SM CLR 23/20 A3003 RMK AO2 T02270203

More Conditions Fewer Conditions

10-Day Weather Forecast

×

Almanac

Astronomie

Jul. 31, 2015 Aufgang Untergang
Genaue Zeit
Bürgerliche Dämmerung
Nautische Dämmerung
Astronomische Dämmerung
Mond
Länge des sichtbaren Lichts
Tageslänge
Tomorrow will be .
, % of the Moon is Illuminated

Heutige Rekorde

State Highs State Lows

Community

WunderPhotos

Upload Photos

1,842,850 Fotos hochgeladen!

WunderBlogs® & News

Nearby

Luftqualität

  Luftqualität LQ Index Schadstoff
Not available.

Schneehöhe

Station Depth Höhe

Erdbebenaktivität

Stadt Distance Mag. Time & Date
Minimum magnitude displayed is 2.5.

küstennahe Wassertemperaturen

Ort Temperatur

Stations

Wetterstationen in der Umgebung

Stationsstandort Temp. Windchill Taupunkt Feuchtigkeit Wind Precip. Höhe Aktualisiert Art